createdAt,value
2023-01-06T00:01:36.675Z,81.50
2023-01-06T00:04:04.483Z,81.80
2023-01-06T00:06:31.990Z,82.00
2023-01-06T00:09:01.296Z,82.30
2023-01-06T00:11:28.864Z,82.50
2023-01-06T00:13:56.511Z,82.60
2023-01-06T00:16:24.027Z,82.60
2023-01-06T00:18:55.627Z,82.60
2023-01-06T00:21:23.060Z,82.70
2023-01-06T00:23:50.208Z,82.60
2023-01-06T00:26:17.033Z,82.60
2023-01-06T00:28:46.132Z,82.70
2023-01-06T00:31:16.835Z,82.80
2023-01-06T00:33:44.335Z,82.70
2023-01-06T00:36:13.451Z,82.70
2023-01-06T00:38:40.868Z,82.70
2023-01-06T00:41:29.794Z,82.60
2023-01-06T00:43:58.819Z,82.70
2023-01-06T00:46:29.035Z,82.60
2023-01-06T00:49:06.555Z,82.70
2023-01-06T00:51:36.350Z,82.40
2023-01-06T00:54:03.963Z,82.40
2023-01-06T00:56:31.544Z,82.20
2023-01-06T00:58:58.647Z,82.20
2023-01-06T01:01:25.675Z,82.10
2023-01-06T01:03:52.663Z,81.80
2023-01-06T01:06:20.080Z,81.70
2023-01-06T01:08:46.955Z,81.70
2023-01-06T01:11:33.914Z,81.60
2023-01-06T01:14:01.147Z,81.50
2023-01-06T01:16:28.117Z,81.40
2023-01-06T01:18:54.937Z,81.10
2023-01-06T01:21:22.928Z,81.00
2023-01-06T01:23:49.817Z,81.10
2023-01-06T01:26:16.968Z,81.10
2023-01-06T01:28:44.543Z,80.80
2023-01-06T01:31:12.876Z,80.80
2023-01-06T01:33:39.728Z,80.60
2023-01-06T01:36:08.311Z,80.80
2023-01-06T01:38:35.702Z,80.60
2023-01-06T01:41:03.296Z,80.50
2023-01-06T01:43:51.018Z,80.50
2023-01-06T01:46:22.814Z,80.30
2023-01-06T01:48:51.284Z,80.50
2023-01-06T01:51:22.952Z,80.30
2023-01-06T01:53:53.719Z,80.10
2023-01-06T01:56:26.523Z,80.10
2023-01-06T01:59:07.582Z,80.10
2023-01-06T02:01:34.913Z,80.00
2023-01-06T02:04:03.753Z,79.70
2023-01-06T02:06:31.087Z,79.80
2023-01-06T02:09:04.496Z,79.70
2023-01-06T02:11:33.950Z,79.70
2023-01-06T02:14:22.289Z,79.80
2023-01-06T02:17:16.919Z,79.80
2023-01-06T02:20:21.811Z,79.80
2023-01-06T02:23:27.271Z,79.60
2023-01-06T02:26:25.260Z,79.70
2023-01-06T02:29:07.331Z,79.80
2023-01-06T02:31:47.526Z,79.60
2023-01-06T02:34:14.883Z,79.60
2023-01-06T02:37:05.939Z,79.50
2023-01-06T02:39:33.088Z,79.70
2023-01-06T02:42:16.303Z,79.60
2023-01-06T02:45:00.454Z,79.50
2023-01-06T02:47:33.062Z,79.50
2023-01-06T02:50:21.636Z,79.30
2023-01-06T02:53:37.471Z,79.20
2023-01-06T02:56:04.637Z,79.00
2023-01-06T02:58:47.308Z,79.00
2023-01-06T03:01:22.577Z,78.90
2023-01-06T03:03:51.671Z,78.60
2023-01-06T03:06:25.831Z,78.90
2023-01-06T03:08:56.164Z,78.60
2023-01-06T03:11:27.276Z,78.40
2023-01-06T03:14:10.033Z,78.60
2023-01-06T03:16:37.882Z,78.40
2023-01-06T03:19:05.027Z,78.50
2023-01-06T03:21:39.781Z,78.40
2023-01-06T03:24:09.402Z,78.30
2023-01-06T03:26:40.041Z,78.40
2023-01-06T03:29:11.936Z,78.40
2023-01-06T03:32:12.843Z,78.40
2023-01-06T03:34:39.825Z,78.30
2023-01-06T03:37:26.291Z,78.00
2023-01-06T03:40:17.555Z,78.00
2023-01-06T03:43:22.050Z,78.00
2023-01-06T03:45:57.099Z,77.80
2023-01-06T03:48:30.217Z,77.60
2023-01-06T03:51:09.609Z,77.80
2023-01-06T03:53:48.908Z,77.60
2023-01-06T03:56:23.438Z,77.40
2023-01-06T03:58:54.964Z,77.50
2023-01-06T04:01:24.971Z,77.40
2023-01-06T04:03:53.372Z,77.30
2023-01-06T04:06:22.687Z,77.30
2023-01-06T04:08:49.915Z,77.20
2023-01-06T04:11:35.935Z,77.40
2023-01-06T04:14:03.185Z,77.30
2023-01-06T04:16:30.223Z,77.00
2023-01-06T04:18:57.514Z,77.00
2023-01-06T04:21:24.399Z,77.30
2023-01-06T04:23:51.425Z,77.20
2023-01-06T04:26:18.459Z,77.10
2023-01-06T04:28:49.132Z,77.30
2023-01-06T04:31:16.188Z,77.30
2023-01-06T04:33:43.170Z,77.20
2023-01-06T04:36:11.906Z,77.00
2023-01-06T04:38:42.888Z,77.20
2023-01-06T04:41:09.686Z,77.00
2023-01-06T04:43:36.490Z,77.10
2023-01-06T04:46:03.460Z,77.10
2023-01-06T04:48:30.559Z,77.10
2023-01-06T04:51:06.166Z,77.00
2023-01-06T04:53:37.468Z,76.90
2023-01-06T04:56:06.556Z,77.00
2023-01-06T04:58:33.429Z,76.90
2023-01-06T05:01:08.815Z,76.70
2023-01-06T05:03:36.257Z,76.90
2023-01-06T05:06:05.864Z,76.90
2023-01-06T05:08:32.657Z,76.70
2023-01-06T05:11:04.903Z,76.70
2023-01-06T05:13:33.314Z,77.00
2023-01-06T05:16:00.448Z,76.90
2023-01-06T05:18:27.322Z,76.90
2023-01-06T05:20:55.220Z,77.00
2023-01-06T05:23:22.352Z,77.20
2023-01-06T05:25:52.723Z,77.10
2023-01-06T05:28:20.355Z,77.10
2023-01-06T05:30:47.238Z,77.40
2023-01-06T05:33:14.580Z,77.60
2023-01-06T05:35:41.460Z,77.70
2023-01-06T05:38:08.526Z,77.80
2023-01-06T05:40:35.678Z,78.20
2023-01-06T05:43:02.461Z,78.50
2023-01-06T05:45:29.514Z,78.60
2023-01-06T05:47:58.315Z,78.90
2023-01-06T05:50:25.163Z,79.00
2023-01-06T05:52:51.936Z,79.10
2023-01-06T05:55:18.772Z,79.30
2023-01-06T05:57:45.671Z,79.40
2023-01-06T06:00:12.857Z,79.40
2023-01-06T06:02:39.931Z,79.40
2023-01-06T06:05:07.020Z,79.50
2023-01-06T06:07:33.940Z,79.50
2023-01-06T06:10:02.097Z,79.50
2023-01-06T06:12:29.013Z,79.60
2023-01-06T06:14:56.054Z,79.40
2023-01-06T06:17:23.009Z,79.40
2023-01-06T06:19:50.097Z,79.20
2023-01-06T06:22:17.039Z,79.20
2023-01-06T06:24:43.953Z,79.20
2023-01-06T06:27:11.029Z,79.30
2023-01-06T06:29:37.923Z,79.50
2023-01-06T06:32:05.191Z,79.80
2023-01-06T06:34:32.108Z,80.10
2023-01-06T06:36:58.963Z,80.40
2023-01-06T06:39:25.757Z,80.60
2023-01-06T06:41:52.551Z,80.80
2023-01-06T06:44:19.383Z,80.90
2023-01-06T06:46:46.382Z,80.90
2023-01-06T06:49:13.164Z,81.00
2023-01-06T06:51:40.109Z,81.10
2023-01-06T06:54:07.171Z,81.10
2023-01-06T06:56:33.979Z,81.30
2023-01-06T06:59:01.117Z,81.60
2023-01-06T07:01:27.981Z,81.80
2023-01-06T07:03:54.897Z,82.20
2023-01-06T07:06:24.132Z,82.50
2023-01-06T07:08:51.281Z,82.70
2023-01-06T07:11:18.883Z,82.80
2023-01-06T07:13:46.473Z,82.90
2023-01-06T07:16:13.669Z,82.90
2023-01-06T07:18:40.918Z,83.10
2023-01-06T07:21:08.208Z,83.20
2023-01-06T07:23:35.261Z,83.50
2023-01-06T07:26:03.072Z,83.70
2023-01-06T07:28:31.373Z,83.70
2023-01-06T07:30:58.578Z,83.70
2023-01-06T07:33:25.429Z,83.80
2023-01-06T07:35:54.017Z,83.80
2023-01-06T07:38:20.942Z,83.60
2023-01-06T07:40:48.279Z,83.40
2023-01-06T07:43:15.247Z,83.50
2023-01-06T07:45:42.073Z,83.50
2023-01-06T07:48:09.457Z,83.40
2023-01-06T07:50:36.288Z,83.30
2023-01-06T07:53:04.369Z,83.10
2023-01-06T07:55:31.383Z,83.20
2023-01-06T07:58:01.205Z,83.20
2023-01-06T08:00:28.094Z,83.20
2023-01-06T08:02:55.104Z,83.10
2023-01-06T08:05:22.279Z,83.00
2023-01-06T08:07:49.421Z,83.10
2023-01-06T08:10:16.480Z,83.10
2023-01-06T08:12:43.352Z,83.10
2023-01-06T08:15:10.609Z,83.00
2023-01-06T08:17:37.642Z,83.00
2023-01-06T08:20:04.859Z,83.00
2023-01-06T08:22:31.877Z,82.90
2023-01-06T08:24:58.643Z,82.80
2023-01-06T08:27:27.594Z,82.90
2023-01-06T08:29:55.366Z,82.80
2023-01-06T08:32:22.489Z,82.70
2023-01-06T08:34:49.318Z,82.60
2023-01-06T08:37:16.100Z,82.50
2023-01-06T08:39:43.063Z,82.40
2023-01-06T08:42:09.881Z,82.30
2023-01-06T08:44:37.045Z,82.40
2023-01-06T08:47:04.434Z,82.40
2023-01-06T08:49:31.423Z,82.30
2023-01-06T08:51:58.466Z,82.20
2023-01-06T08:54:25.435Z,82.20
2023-01-06T08:56:52.431Z,81.90
2023-01-06T08:59:19.273Z,82.00
2023-01-06T09:01:46.155Z,82.00
2023-01-06T09:04:13.351Z,81.80
2023-01-06T09:06:43.049Z,82.00
2023-01-06T09:09:11.950Z,81.90
2023-01-06T09:11:42.483Z,81.70
2023-01-06T09:14:11.366Z,81.50
2023-01-06T09:16:39.142Z,81.30
2023-01-06T09:19:06.023Z,81.00
2023-01-06T09:21:32.861Z,81.00
2023-01-06T09:23:59.724Z,80.80
2023-01-06T09:26:26.531Z,80.60
2023-01-06T09:28:53.423Z,80.60
2023-01-06T09:31:20.512Z,80.10
2023-01-06T09:33:47.448Z,79.90
2023-01-06T09:36:14.343Z,79.80
2023-01-06T09:38:41.168Z,79.70
2023-01-06T09:41:32.088Z,79.30
2023-01-06T09:44:13.075Z,79.40
2023-01-06T09:46:45.003Z,79.00
2023-01-06T09:49:17.533Z,78.80
2023-01-06T09:51:44.544Z,78.50
2023-01-06T09:54:26.106Z,78.30
2023-01-06T09:57:17.880Z,77.30
2023-01-06T09:59:59.775Z,77.10
2023-01-06T10:02:37.311Z,76.90
2023-01-06T10:05:19.679Z,76.70
2023-01-06T10:07:53.722Z,75.80
2023-01-06T10:10:39.248Z,75.60
2023-01-06T10:13:27.227Z,74.70
2023-01-06T10:15:57.149Z,74.60
2023-01-06T10:18:23.920Z,74.10
2023-01-06T10:21:23.141Z,74.30
2023-01-06T10:24:31.422Z,74.00
2023-01-06T10:27:03.597Z,73.40
2023-01-06T10:29:35.678Z,72.90
2023-01-06T10:32:03.662Z,72.80
2023-01-06T10:34:34.102Z,72.80
2023-01-06T10:37:09.802Z,71.70
2023-01-06T10:39:38.842Z,71.60
2023-01-06T10:42:30.263Z,71.90
2023-01-06T10:44:57.081Z,71.70
2023-01-06T10:47:31.744Z,71.60
2023-01-06T10:49:59.463Z,71.30
2023-01-06T10:52:27.284Z,71.20
2023-01-06T10:55:03.782Z,71.20
2023-01-06T10:57:36.122Z,71.00
2023-01-06T11:00:24.020Z,71.20
2023-01-06T11:03:31.506Z,71.10
2023-01-06T11:06:00.859Z,71.20
2023-01-06T11:08:28.859Z,70.80
2023-01-06T11:10:58.735Z,71.30
2023-01-06T11:13:34.886Z,71.50
2023-01-06T11:16:04.784Z,71.30
2023-01-06T11:18:38.991Z,71.20
2023-01-06T11:21:10.406Z,71.80
2023-01-06T11:23:41.217Z,71.90
2023-01-06T11:26:18.068Z,71.90
2023-01-06T11:28:53.006Z,72.10
2023-01-06T11:31:23.132Z,72.30
2023-01-06T11:33:59.798Z,72.20
2023-01-06T11:36:30.059Z,71.50
2023-01-06T11:38:59.008Z,71.50
2023-01-06T11:41:32.417Z,70.90
2023-01-06T11:44:17.296Z,71.50
2023-01-06T11:46:58.997Z,71.80
2023-01-06T11:49:37.029Z,71.60
2023-01-06T11:52:25.457Z,70.50
2023-01-06T11:55:07.676Z,70.90
2023-01-06T11:57:50.771Z,70.90
2023-01-06T12:00:45.676Z,71.40
2023-01-06T12:03:24.528Z,71.40
2023-01-06T12:05:54.833Z,71.00
2023-01-06T12:08:26.813Z,70.30
2023-01-06T12:11:20.981Z,69.60
2023-01-06T12:14:08.283Z,69.80
2023-01-06T12:16:55.304Z,69.90
2023-01-06T12:19:33.311Z,69.20
2023-01-06T12:22:01.869Z,69.10
2023-01-06T12:24:30.159Z,68.60
2023-01-06T12:26:58.465Z,68.40
2023-01-06T12:29:26.052Z,68.40
2023-01-06T12:32:07.876Z,68.00
2023-01-06T12:34:36.702Z,67.30
2023-01-06T12:37:16.568Z,67.30
2023-01-06T12:40:08.965Z,66.80
2023-01-06T12:42:45.254Z,66.10
2023-01-06T12:45:46.581Z,65.30
2023-01-06T12:48:24.095Z,65.50
2023-01-06T12:51:19.503Z,64.30
2023-01-06T12:53:56.387Z,64.00
2023-01-06T12:56:50.693Z,63.40
2023-01-06T12:59:48.993Z,63.40
2023-01-06T13:02:41.845Z,62.20
2023-01-06T13:05:36.275Z,61.90
2023-01-06T13:08:18.550Z,62.10
2023-01-06T13:11:28.558Z,61.00
2023-01-06T13:14:05.541Z,59.50
2023-01-06T13:17:04.724Z,59.30
2023-01-06T13:19:50.425Z,59.00
2023-01-06T13:22:40.584Z,57.90
2023-01-06T13:25:48.065Z,57.70
2023-01-06T13:28:44.916Z,57.80
2023-01-06T13:31:30.805Z,58.80
2023-01-06T13:34:10.820Z,59.90
2023-01-06T13:36:49.885Z,60.30
2023-01-06T13:39:22.992Z,60.60
2023-01-06T13:41:55.912Z,61.20
2023-01-06T13:44:27.127Z,61.40
2023-01-06T13:47:02.605Z,61.90
2023-01-06T13:49:31.025Z,62.10
2023-01-06T13:51:58.147Z,62.50
2023-01-06T13:54:40.370Z,62.50
2023-01-06T13:57:22.398Z,62.70
2023-01-06T13:59:50.445Z,62.90
2023-01-06T14:02:40.302Z,63.10
2023-01-06T14:05:22.295Z,63.50
2023-01-06T14:07:54.232Z,63.60
2023-01-06T14:10:45.845Z,63.30
2023-01-06T14:13:24.421Z,63.70
2023-01-06T14:16:05.100Z,63.40
2023-01-06T14:18:34.151Z,63.10
2023-01-06T14:21:07.336Z,63.30
2023-01-06T14:23:34.702Z,63.50
2023-01-06T14:26:02.136Z,63.20
2023-01-06T14:28:33.689Z,63.30
2023-01-06T14:31:31.436Z,63.20
2023-01-06T14:34:03.173Z,63.30
2023-01-06T14:36:32.481Z,63.20
2023-01-06T14:39:04.467Z,63.20
2023-01-06T14:42:05.160Z,63.10
2023-01-06T14:44:46.648Z,63.20
2023-01-06T14:47:31.704Z,63.40
2023-01-06T14:50:06.290Z,63.60
2023-01-06T14:52:39.330Z,63.70
2023-01-06T14:55:15.547Z,63.80
2023-01-06T14:57:42.385Z,63.90
2023-01-06T15:00:16.444Z,63.90
2023-01-06T15:02:47.060Z,64.20
2023-01-06T15:05:37.985Z,64.50
2023-01-06T15:08:16.903Z,64.70
2023-01-06T15:10:49.218Z,64.90
2023-01-06T15:13:23.213Z,65.20
2023-01-06T15:15:58.279Z,65.30
2023-01-06T15:18:25.429Z,65.40
2023-01-06T15:20:55.171Z,65.60
2023-01-06T15:23:22.497Z,65.80
2023-01-06T15:25:54.501Z,66.10
2023-01-06T15:28:34.405Z,66.40
2023-01-06T15:31:02.236Z,66.50
2023-01-06T15:33:38.507Z,66.80
2023-01-06T15:36:06.560Z,67.20
2023-01-06T15:38:36.070Z,67.30
2023-01-06T15:41:05.387Z,67.60
2023-01-06T15:43:50.338Z,67.90
2023-01-06T15:46:17.244Z,68.30
2023-01-06T15:48:47.606Z,68.40
2023-01-06T15:51:18.481Z,68.60
2023-01-06T15:53:47.577Z,68.90
2023-01-06T15:56:26.495Z,69.10
2023-01-06T15:58:56.093Z,69.20
2023-01-06T16:01:24.127Z,69.20
2023-01-06T16:03:55.747Z,69.30
2023-01-06T16:06:31.506Z,69.40
2023-01-06T16:09:23.948Z,69.60
2023-01-06T16:12:19.336Z,69.70
2023-01-06T16:14:49.116Z,69.80
2023-01-06T16:17:37.790Z,70.00
2023-01-06T16:20:08.481Z,70.10
2023-01-06T16:22:49.687Z,70.20
2023-01-06T16:25:32.868Z,70.40
2023-01-06T16:28:03.296Z,70.50
2023-01-06T16:30:33.610Z,70.70
2023-01-06T16:33:01.054Z,70.80
2023-01-06T16:35:30.467Z,70.70
2023-01-06T16:37:57.684Z,70.70
2023-01-06T16:40:26.512Z,70.90
2023-01-06T16:43:03.062Z,70.80
2023-01-06T16:45:37.213Z,71.00
2023-01-06T16:48:04.253Z,71.10
2023-01-06T16:50:36.205Z,71.10
2023-01-06T16:53:20.624Z,71.10
2023-01-06T16:55:55.735Z,71.20
2023-01-06T16:58:28.147Z,71.20
2023-01-06T17:01:01.109Z,71.30
2023-01-06T17:03:34.970Z,71.30
2023-01-06T17:06:01.814Z,71.40
2023-01-06T17:08:37.203Z,71.40
2023-01-06T17:11:19.387Z,71.70
2023-01-06T17:14:13.332Z,71.80
2023-01-06T17:16:42.010Z,72.00
2023-01-06T17:19:29.974Z,71.90
2023-01-06T17:22:05.094Z,72.00
2023-01-06T17:24:32.280Z,72.00
2023-01-06T17:27:30.262Z,72.10
2023-01-06T17:30:01.738Z,72.20
2023-01-06T17:32:41.086Z,72.30
2023-01-06T17:35:26.479Z,72.30
2023-01-06T17:37:57.858Z,72.30
2023-01-06T17:40:31.835Z,72.30
2023-01-06T17:43:03.524Z,72.50
2023-01-06T17:45:30.786Z,72.60
2023-01-06T17:47:58.172Z,72.70
2023-01-06T17:50:32.835Z,72.80
2023-01-06T17:53:49.714Z,73.00
2023-01-06T17:56:17.201Z,73.10
2023-01-06T17:58:45.263Z,73.20
2023-01-06T18:01:27.401Z,73.30
2023-01-06T18:03:58.127Z,73.50
2023-01-06T18:06:27.898Z,73.50
2023-01-06T18:09:05.912Z,73.60
2023-01-06T18:11:35.601Z,73.70
2023-01-06T18:14:25.563Z,73.70
2023-01-06T18:16:54.810Z,73.90
2023-01-06T18:19:33.206Z,74.00
2023-01-06T18:22:02.865Z,74.10
2023-01-06T18:24:31.731Z,74.20
2023-01-06T18:27:00.879Z,74.30
2023-01-06T18:29:36.713Z,74.50
2023-01-06T18:32:22.018Z,74.70
2023-01-06T18:34:54.749Z,74.90
2023-01-06T18:37:27.161Z,75.10
2023-01-06T18:39:58.567Z,75.50
2023-01-06T18:42:30.014Z,75.60
2023-01-06T18:45:36.011Z,75.90
2023-01-06T18:48:14.624Z,76.10
2023-01-06T18:50:45.169Z,76.30
2023-01-06T18:53:14.959Z,76.50
2023-01-06T18:55:54.152Z,76.60
2023-01-06T18:58:33.126Z,76.90
2023-01-06T19:01:30.203Z,77.00
2023-01-06T19:04:00.234Z,77.20
2023-01-06T19:06:38.257Z,77.50
2023-01-06T19:09:18.005Z,77.70
2023-01-06T19:11:46.939Z,77.90
2023-01-06T19:14:18.973Z,78.10
2023-01-06T19:16:55.225Z,78.30
2023-01-06T19:19:26.786Z,78.50
2023-01-06T19:22:02.931Z,78.80
2023-01-06T19:24:32.722Z,78.90
2023-01-06T19:27:00.500Z,79.10
2023-01-06T19:29:35.265Z,79.30
2023-01-06T19:32:13.067Z,79.40
2023-01-06T19:34:40.164Z,79.50
2023-01-06T19:37:17.325Z,79.80
2023-01-06T19:39:53.259Z,80.20
2023-01-06T19:42:30.174Z,80.40
2023-01-06T19:45:06.035Z,80.50
2023-01-06T19:47:39.013Z,80.90
2023-01-06T19:50:18.621Z,81.20
2023-01-06T19:52:45.709Z,81.30
2023-01-06T19:55:30.196Z,81.40
2023-01-06T19:58:14.925Z,81.50
2023-01-06T20:00:52.763Z,81.70
2023-01-06T20:03:25.769Z,81.80
2023-01-06T20:05:53.088Z,81.90
2023-01-06T20:08:20.045Z,81.80
2023-01-06T20:10:46.992Z,82.00
2023-01-06T20:13:14.327Z,82.00
2023-01-06T20:15:41.381Z,82.00
2023-01-06T20:18:08.355Z,82.00
2023-01-06T20:20:35.325Z,82.00
2023-01-06T20:23:02.583Z,82.10
2023-01-06T20:25:29.628Z,82.10
2023-01-06T20:27:58.201Z,81.90
2023-01-06T20:30:26.363Z,81.90
2023-01-06T20:32:53.227Z,81.90
2023-01-06T20:35:20.350Z,82.00
2023-01-06T20:37:47.259Z,82.30
2023-01-06T20:40:14.151Z,82.40
2023-01-06T20:42:40.977Z,82.50
2023-01-06T20:45:08.657Z,82.40
2023-01-06T20:47:35.816Z,82.60
2023-01-06T20:50:02.672Z,82.80
2023-01-06T20:52:29.498Z,82.90
2023-01-06T20:54:56.805Z,82.90
2023-01-06T20:57:23.900Z,83.00
2023-01-06T20:59:50.770Z,82.90
2023-01-06T21:02:17.909Z,83.00
2023-01-06T21:04:45.032Z,83.10
2023-01-06T21:07:11.935Z,83.20
2023-01-06T21:09:38.741Z,83.20
2023-01-06T21:12:05.914Z,83.20
2023-01-06T21:14:33.913Z,83.20
2023-01-06T21:17:01.386Z,83.30
2023-01-06T21:19:28.448Z,83.40
2023-01-06T21:21:55.236Z,83.30
2023-01-06T21:24:22.519Z,83.40
2023-01-06T21:26:49.376Z,83.20
2023-01-06T21:29:16.162Z,83.40
2023-01-06T21:31:43.826Z,83.40
2023-01-06T21:34:10.914Z,83.30
2023-01-06T21:36:37.884Z,83.30
2023-01-06T21:39:07.535Z,83.40
2023-01-06T21:41:52.958Z,83.40
2023-01-06T21:44:21.221Z,83.20
2023-01-06T21:46:48.143Z,83.20
2023-01-06T21:49:15.558Z,83.20
2023-01-06T21:51:42.411Z,83.30
2023-01-06T21:54:09.560Z,83.30
2023-01-06T21:56:36.953Z,83.30
2023-01-06T21:59:03.932Z,83.30
2023-01-06T22:01:30.884Z,83.30
2023-01-06T22:03:58.073Z,83.40
2023-01-06T22:06:25.580Z,83.30
2023-01-06T22:08:54.142Z,83.20
2023-01-06T22:11:20.999Z,83.20
2023-01-06T22:13:48.131Z,83.10
2023-01-06T22:16:15.627Z,83.10
2023-01-06T22:18:42.755Z,82.90
2023-01-06T22:21:09.802Z,82.80
2023-01-06T22:23:36.897Z,82.70
2023-01-06T22:26:04.003Z,82.60
2023-01-06T22:28:31.058Z,82.50
2023-01-06T22:30:58.219Z,82.50
2023-01-06T22:33:25.288Z,82.50
2023-01-06T22:35:55.958Z,82.70
2023-01-06T22:38:22.811Z,82.70
2023-01-06T22:40:49.580Z,83.00
2023-01-06T22:43:18.141Z,83.10
2023-01-06T22:45:56.878Z,83.20
2023-01-06T22:48:24.915Z,83.30
2023-01-06T22:50:59.931Z,83.30
2023-01-06T22:53:27.672Z,83.60
2023-01-06T22:56:02.867Z,83.70
2023-01-06T22:58:30.602Z,83.70
2023-01-06T23:00:57.437Z,83.70
2023-01-06T23:03:24.741Z,83.70
2023-01-06T23:06:00.249Z,83.70
2023-01-06T23:08:28.625Z,83.70
2023-01-06T23:11:09.897Z,83.80
2023-01-06T23:13:39.059Z,83.80
2023-01-06T23:16:10.833Z,83.80
2023-01-06T23:18:41.175Z,83.80
2023-01-06T23:21:11.236Z,83.70
2023-01-06T23:23:39.824Z,83.70
2023-01-06T23:26:10.259Z,83.70
2023-01-06T23:28:37.585Z,83.70
2023-01-06T23:31:10.566Z,83.70
2023-01-06T23:33:49.189Z,83.70
2023-01-06T23:36:18.247Z,83.70
2023-01-06T23:38:46.134Z,83.70
2023-01-06T23:41:15.522Z,83.60
2023-01-06T23:43:43.070Z,83.60
2023-01-06T23:46:25.475Z,83.50
2023-01-06T23:48:53.455Z,83.40
2023-01-06T23:51:22.271Z,83.40
2023-01-06T23:53:49.292Z,83.30
2023-01-06T23:56:21.829Z,83.00
2023-01-06T23:58:51.906Z,83.00
